Terminal Aerodrome Forecast
Issued by NWS

Home | Current Version | Previous Version | Text Only | Print | Product List | Glossary On
Versions: 1 2 3 4 5 6 7 8 9 10 11 12 13 14 15 16 17 18 19 20 21 22 23 24 25 26 27 28 29 30 31 32 33 34 35 36 37 38 39
000
FTUS43 KDTX 211400 AAA
TAFYIP
TAF AMD
KYIP 211411Z 2114/2212 26015G25KT P6SM SCT025 BKN040
      TEMPO 2117/2119 5SM -SHRA BR BKN025
     FM211900 29012G18KT 5SM -SHRA BKN020
     FM212200 35013G23KT P6SM BKN025
     FM220000 33012KT P6SM BKN020=

USA.gov is the U.S. government's official web portal to all federal, state and local government web resources and services.